Time;durP1;ratioP1;P1;durP2;ratioP2;P2;SDS_P1;SDS_P2;PMS_P1;PMS_P2;Temp;Humidity;BMP_temperature;BMP_pressure;BME280_temperature;BME280_humidity;BME280_pressure;Samples;Min_cycle;Max_cycle;Signal;HPM_P1;HPM_P2
2023/11/17 00:01:08;;;;;;;2.13;1.80;;;;;;;7.85;79.41;95346.84;5050247;28;20245;-68
2023/11/17 00:03:33;;;;;;;3.63;1.90;;;;;;;7.93;77.90;95358.69;5059891;28;20269;-69
2023/11/17 00:05:59;;;;;;;2.63;1.90;;;;;;;7.91;78.15;95350.91;5065544;28;20194;-69
2023/11/17 00:08:25;;;;;;;3.60;2.30;;;;;;;7.81;78.80;95357.53;5066010;28;20447;-69
2023/11/17 00:10:52;;;;;;;4.20;3.90;;;;;;;7.87;79.60;95374.69;5060071;28;20565;-69
2023/11/17 00:13:18;;;;;;;2.27;2.07;;;;;;;7.88;79.21;95378.97;5050982;28;20414;-68
2023/11/17 00:15:43;;;;;;;2.43;1.93;;;;;;;7.90;78.64;95379.75;5049955;28;20504;-69
2023/11/17 00:18:08;;;;;;;2.40;1.80;;;;;;;7.88;79.15;95392.03;5049702;28;20637;-68
2023/11/17 00:20:34;;;;;;;2.60;1.97;;;;;;;8.04;77.99;95392.97;5049713;28;20617;-69
2023/11/17 00:22:59;;;;;;;2.87;1.57;;;;;;;7.96;77.75;95410.78;5049730;28;20210;-68
2023/11/17 00:25:24;;;;;;;3.20;1.60;;;;;;;8.11;75.88;95415.25;5047933;28;20193;-69
2023/11/17 00:27:50;;;;;;;1.63;1.20;;;;;;;7.90;76.53;95426.78;5049741;28;20179;-69
2023/11/17 00:30:15;;;;;;;1.40;1.30;;;;;;;7.91;75.78;95431.91;5049513;28;20185;-68
2023/11/17 00:32:41;;;;;;;1.67;1.00;;;;;;;7.80;76.01;95442.03;5044422;28;20566;-69
2023/11/17 00:35:08;;;;;;;1.10;0.80;;;;;;;7.92;76.09;95457.13;5028835;28;20197;-69
2023/11/17 00:37:33;;;;;;;1.10;0.70;;;;;;;7.90;75.57;95465.94;5029432;28;20643;-68
2023/11/17 00:39:59;;;;;;;1.00;0.70;;;;;;;7.71;76.43;95473.81;5029701;28;20421;-68
2023/11/17 00:42:24;;;;;;;1.30;0.80;;;;;;;7.81;76.42;95482.91;5029451;28;20191;-69
2023/11/17 00:44:49;;;;;;;2.10;0.80;;;;;;;7.74;75.47;95494.56;5029019;28;20202;-68
2023/11/17 00:47:15;;;;;;;3.13;0.97;;;;;;;7.89;74.91;95498.19;5029976;28;20233;-68
2023/11/17 00:49:42;;;;;;;1.50;0.80;;;;;;;7.79;75.48;95508.25;5029238;28;20797;-68
2023/11/17 00:52:08;;;;;;;1.00;0.80;;;;;;;7.90;74.73;95518.19;5029422;28;20218;-68
2023/11/17 00:54:42;;;;;;;2.90;1.00;;;;;;;7.83;74.80;95521.09;5029414;28;20847;-68
2023/11/17 00:57:10;;;;;;;1.97;0.77;;;;;;;7.83;75.21;95533.31;5029690;28;20421;-67
2023/11/17 00:59:37;;;;;;;1.20;0.70;;;;;;;7.78;74.85;95545.75;5029557;28;20529;-68
2023/11/17 01:02:04;;;;;;;1.93;0.90;;;;;;;7.74;75.08;95565.06;5029339;28;20440;-68
2023/11/17 01:04:29;;;;;;;1.30;0.87;;;;;;;7.76;75.33;95568.47;5029477;28;20465;-69
2023/11/17 01:06:55;;;;;;;3.20;1.00;;;;;;;7.79;74.91;95590.03;5029074;28;20414;-69
2023/11/17 01:09:20;;;;;;;4.30;1.13;;;;;;;7.74;74.71;95597.25;5029320;28;20199;-69
2023/11/17 01:11:46;;;;;;;1.00;0.80;;;;;;;7.73;74.10;95598.19;5029374;28;20662;-69
2023/11/17 01:14:11;;;;;;;2.23;1.63;;;;;;;7.69;75.24;95620.13;5029655;28;20171;-66
2023/11/17 01:16:37;;;;;;;2.23;0.80;;;;;;;7.61;75.20;95630.91;5029425;28;20986;-69
2023/11/17 01:19:03;;;;;;;1.23;0.90;;;;;;;7.41;74.99;95650.06;5030059;28;20226;-69
2023/11/17 01:21:29;;;;;;;1.30;0.90;;;;;;;7.59;73.90;95658.00;5030187;28;20434;-69
2023/11/17 01:23:55;;;;;;;1.50;1.03;;;;;;;7.54;74.06;95659.97;5029331;28;20284;-68
2023/11/17 01:26:20;;;;;;;1.30;1.07;;;;;;;7.38;74.40;95678.06;5041733;28;20501;-69
2023/11/17 01:28:46;;;;;;;1.97;1.50;;;;;;;7.47;73.47;95685.50;5043261;28;20638;-69
2023/11/17 01:31:12;;;;;;;1.10;0.70;;;;;;;7.40;73.39;95708.41;5044734;28;20554;-69
2023/11/17 01:33:38;;;;;;;3.17;1.03;;;;;;;7.38;72.38;95718.06;5042984;28;20185;-70
2023/11/17 01:36:05;;;;;;;1.50;1.00;;;;;;;7.27;72.60;95729.84;5042176;28;20498;-69
2023/11/17 01:38:31;;;;;;;1.20;0.87;;;;;;;7.31;73.29;95739.28;5042513;28;20229;-69
2023/11/17 01:40:58;;;;;;;1.17;0.97;;;;;;;7.36;71.12;95751.19;5042623;28;20518;-69
2023/11/17 01:43:24;;;;;;;1.03;0.70;;;;;;;7.33;71.73;95764.38;5042373;28;20454;-69
2023/11/17 01:45:50;;;;;;;1.70;1.03;;;;;;;7.11;71.31;95769.66;5031682;28;20429;-68
2023/11/17 01:48:16;;;;;;;1.83;0.80;;;;;;;7.15;70.70;95786.00;5029337;28;20414;-69
2023/11/17 01:50:42;;;;;;;1.10;0.77;;;;;;;7.11;69.85;95802.69;5027883;28;20925;-69
2023/11/17 01:53:08;;;;;;;1.87;0.83;;;;;;;7.15;70.76;95812.94;5027870;28;20280;-69
2023/11/17 01:55:33;;;;;;;2.80;0.83;;;;;;;6.97;70.23;95808.47;5027477;28;20913;-68
2023/11/17 01:58:01;;;;;;;2.40;0.80;;;;;;;7.03;71.14;95815.19;5028157;28;20539;-67
2023/11/17 02:00:27;;;;;;;3.53;1.07;;;;;;;7.06;70.68;95821.13;5027668;28;20652;-67
2023/11/17 02:02:54;;;;;;;1.03;0.80;;;;;;;7.00;70.97;95837.88;5027773;28;20414;-69
2023/11/17 02:05:24;;;;;;;1.33;0.70;;;;;;;7.08;69.93;95840.19;5027558;28;20203;-68
2023/11/17 02:08:04;;;;;;;1.10;0.90;;;;;;;7.03;70.58;95841.28;5027878;28;20429;-68
2023/11/17 02:10:54;;;;;;;1.20;0.70;;;;;;;7.04;70.51;95854.28;5027415;28;20418;-68
2023/11/17 02:13:27;;;;;;;1.00;0.70;;;;;;;6.96;70.97;95872.81;5027260;28;20924;-69
2023/11/17 02:15:54;;;;;;;1.87;1.77;;;;;;;6.95;70.79;95876.34;5027228;28;20430;-68
2023/11/17 02:18:22;;;;;;;1.33;0.70;;;;;;;6.86;70.92;95886.28;5027833;28;20421;-68
2023/11/17 02:20:53;;;;;;;1.23;0.80;;;;;;;6.94;70.45;95885.06;5027510;28;20771;-68
2023/11/17 02:23:20;;;;;;;1.20;0.80;;;;;;;6.79;71.43;95899.53;5027560;28;20449;-68
2023/11/17 02:26:25;;;;;;;0.90;0.70;;;;;;;6.76;71.63;95906.63;5025635;28;20422;-69
2023/11/17 02:29:06;;;;;;;3.70;1.37;;;;;;;6.75;71.27;95916.19;5035207;28;20437;-68
2023/11/17 02:31:33;;;;;;;1.20;0.60;;;;;;;6.76;71.78;95923.13;5027241;28;20835;-68
2023/11/17 02:34:09;;;;;;;0.90;0.60;;;;;;;6.82;71.54;95935.09;5027109;28;20418;-69
2023/11/17 02:36:35;;;;;;;4.20;1.37;;;;;;;6.80;71.86;95939.50;5027489;28;20410;-70
2023/11/17 02:39:15;;;;;;;1.00;0.70;;;;;;;6.77;70.67;95940.47;5027225;28;20453;-68
2023/11/17 02:41:56;;;;;;;1.67;0.60;;;;;;;6.79;71.18;95962.13;5027354;28;20437;-68
2023/11/17 02:44:28;;;;;;;1.23;0.70;;;;;;;6.73;71.81;95966.72;5027437;28;21060;-68
2023/11/17 02:46:58;;;;;;;2.27;0.80;;;;;;;6.68;72.05;95977.31;5027295;28;20412;-67
2023/11/17 02:50:03;;;;;;;0.90;0.70;;;;;;;6.67;71.37;95980.81;5027702;28;20436;-69
2023/11/17 02:52:20;;;;;;;1.07;0.70;;;;;;;6.65;71.19;95995.66;5027902;28;20450;-67
2023/11/17 02:54:48;;;;;;;4.93;0.70;;;;;;;6.66;71.67;95999.13;5027112;28;20443;-70
2023/11/17 02:57:15;;;;;;;1.23;0.60;;;;;;;6.66;71.88;96007.81;5027348;28;20419;-66
2023/11/17 02:59:42;;;;;;;0.90;0.60;;;;;;;6.78;70.71;96016.97;5027354;28;20421;-68
2023/11/17 03:02:07;;;;;;;0.90;0.63;;;;;;;6.66;71.35;96026.06;5027213;28;20920;-69
2023/11/17 03:04:33;;;;;;;1.00;0.70;;;;;;;6.74;71.07;96033.63;5026994;28;20449;-67
2023/11/17 03:07:04;;;;;;;3.43;0.70;;;;;;;6.72;71.57;96038.03;5026909;28;20182;-68
2023/11/17 03:09:30;;;;;;;2.27;0.70;;;;;;;6.66;71.60;96046.06;5028850;28;20550;-68
2023/11/17 03:11:59;;;;;;;0.90;0.60;;;;;;;6.74;71.35;96038.84;5028946;28;20434;-68
2023/11/17 03:14:25;;;;;;;1.10;1.00;;;;;;;6.67;71.13;96050.38;5027060;28;20430;-67
2023/11/17 03:16:55;;;;;;;0.97;0.77;;;;;;;6.64;71.58;96053.06;5026842;28;20766;-67
2023/11/17 03:19:23;;;;;;;1.10;0.70;;;;;;;6.60;70.69;96056.72;5027020;28;20411;-68
2023/11/17 03:21:50;;;;;;;2.27;0.83;;;;;;;6.54;72.13;96060.34;5026750;28;20441;-68
2023/11/17 03:24:18;;;;;;;2.37;0.70;;;;;;;6.58;72.15;96060.19;5026761;28;20450;-68
2023/11/17 03:26:45;;;;;;;1.40;1.00;;;;;;;6.63;71.65;96067.03;5026424;28;20500;-68
2023/11/17 03:29:13;;;;;;;4.13;0.90;;;;;;;6.79;71.63;96063.00;5026335;28;21193;-68
2023/11/17 03:31:39;;;;;;;1.90;0.87;;;;;;;6.62;71.97;96070.56;5026612;28;20614;-68
2023/11/17 03:34:09;;;;;;;1.00;0.70;;;;;;;6.75;71.02;96066.59;5026742;28;20418;-68
2023/11/17 03:36:34;;;;;;;1.30;0.87;;;;;;;6.66;71.72;96074.72;5026777;28;20629;-68
2023/11/17 03:39:00;;;;;;;2.90;0.70;;;;;;;6.62;72.59;96076.59;5026615;28;20414;-68
2023/11/17 03:41:26;;;;;;;1.00;0.60;;;;;;;6.63;72.68;96083.50;5028980;28;20269;-69
2023/11/17 03:43:52;;;;;;;0.93;0.70;;;;;;;6.60;72.00;96082.78;5030502;28;20278;-68
2023/11/17 03:46:17;;;;;;;2.07;0.70;;;;;;;6.57;72.61;96087.19;5030169;28;20242;-67
2023/11/17 03:48:42;;;;;;;0.90;0.67;;;;;;;6.64;71.28;96094.78;5030379;28;20580;-68
2023/11/17 03:51:08;;;;;;;2.27;1.53;;;;;;;6.57;71.15;96102.00;5030207;28;20215;-68
2023/11/17 03:53:36;;;;;;;1.77;0.60;;;;;;;6.68;71.08;96099.84;5030221;28;20619;-68
2023/11/17 03:56:02;;;;;;;1.10;0.70;;;;;;;6.68;70.46;96107.66;5029935;28;20183;-68
2023/11/17 03:58:28;;;;;;;1.20;0.70;;;;;;;6.54;71.06;96108.16;5030138;28;20417;-68
2023/11/17 04:00:54;;;;;;;2.90;0.70;;;;;;;6.52;71.11;96109.94;5030654;28;20460;-69
2023/11/17 04:03:20;;;;;;;1.10;0.70;;;;;;;6.54;71.28;96112.50;5032688;28;20203;-69
2023/11/17 04:05:45;;;;;;;1.43;0.70;;;;;;;6.66;71.75;96111.25;5029847;28;21037;-69
2023/11/17 04:08:16;;;;;;;1.60;0.90;;;;;;;6.71;71.12;96127.59;5029881;28;20255;-69
2023/11/17 04:10:43;;;;;;;2.00;0.70;;;;;;;6.67;71.53;96121.63;5030023;28;20254;-69
2023/11/17 04:13:08;;;;;;;1.50;0.90;;;;;;;6.55;71.46;96138.53;5030091;28;20464;-68
2023/11/17 04:15:35;;;;;;;1.30;0.80;;;;;;;6.54;71.77;96134.22;5029657;28;20418;-68
2023/11/17 04:18:01;;;;;;;1.30;0.70;;;;;;;6.54;72.09;96133.34;5030185;28;20671;-68
2023/11/17 04:20:26;;;;;;;1.00;0.70;;;;;;;6.63;71.37;96140.88;5029982;28;20417;-67
2023/11/17 04:22:52;;;;;;;0.90;0.70;;;;;;;6.69;70.52;96137.22;5029554;28;20715;-69
2023/11/17 04:25:17;;;;;;;3.40;0.90;;;;;;;6.69;70.54;96139.84;5029648;28;20285;-68
2023/11/17 04:27:43;;;;;;;1.17;0.80;;;;;;;6.60;70.60;96151.41;5029838;28;20187;-69
2023/11/17 04:30:09;;;;;;;3.43;1.10;;;;;;;6.56;71.09;96153.25;5030178;28;20206;-67
2023/11/17 04:32:35;;;;;;;4.40;2.40;;;;;;;6.42;71.70;96158.03;5033516;28;20187;-68
2023/11/17 04:35:01;;;;;;;2.30;1.20;;;;;;;6.60;71.43;96159.22;5049173;28;20175;-68
2023/11/17 04:37:27;;;;;;;1.50;0.90;;;;;;;6.53;71.84;96161.19;5049678;28;20171;-68
2023/11/17 04:39:53;;;;;;;1.00;0.80;;;;;;;6.54;72.00;96155.09;5049441;28;20923;-67
2023/11/17 04:42:18;;;;;;;4.70;1.13;;;;;;;6.67;71.12;96154.69;5049333;28;20437;-69
2023/11/17 04:44:44;;;;;;;1.20;0.90;;;;;;;6.49;72.04;96172.59;5049044;28;20210;-67
2023/11/17 04:47:10;;;;;;;1.67;1.20;;;;;;;6.43;71.74;96172.81;5049100;28;20182;-69
2023/11/17 04:49:36;;;;;;;2.30;1.20;;;;;;;6.61;72.42;96163.53;5049222;28;20413;-68
2023/11/17 04:52:02;;;;;;;1.60;1.10;;;;;;;6.63;72.31;96166.94;5048560;28;20605;-68
2023/11/17 04:54:28;;;;;;;1.80;1.30;;;;;;;6.64;72.27;96173.00;5049278;28;20426;-69
2023/11/17 04:56:55;;;;;;;3.40;1.90;;;;;;;6.57;72.23;96165.41;5049073;28;20422;-68
2023/11/17 04:59:21;;;;;;;1.57;1.10;;;;;;;6.48;71.85;96173.50;5047729;28;20232;-67
2023/11/17 05:01:46;;;;;;;1.20;0.93;;;;;;;6.46;72.02;96180.53;5049331;28;20441;-70
2023/11/17 05:04:13;;;;;;;4.53;0.97;;;;;;;6.60;71.44;96190.53;5048746;28;20227;-68
2023/11/17 05:06:39;;;;;;;2.03;1.10;;;;;;;6.49;72.11;96190.00;5048929;28;20179;-69
2023/11/17 05:09:12;;;;;;;2.40;1.33;;;;;;;6.65;71.62;96187.78;5048863;28;20421;-69
2023/11/17 05:11:38;;;;;;;4.90;1.10;;;;;;;6.46;72.03;96187.50;5048665;28;20433;-69
2023/11/17 05:14:05;;;;;;;1.13;1.00;;;;;;;6.68;70.89;96188.50;5048609;28;20830;-69
2023/11/17 05:16:31;;;;;;;1.87;1.00;;;;;;;6.44;71.29;96190.13;5048316;28;20405;-70
2023/11/17 05:18:57;;;;;;;2.30;0.97;;;;;;;6.46;71.47;96190.94;5033076;28;20489;-69
2023/11/17 05:21:22;;;;;;;3.10;1.20;;;;;;;6.45;71.24;96198.81;5038339;28;22432;-69
2023/11/17 05:23:48;;;;;;;1.50;1.13;;;;;;;6.39;71.74;96206.84;5039908;28;20202;-68
2023/11/17 05:26:13;;;;;;;3.20;1.20;;;;;;;6.45;71.14;96197.06;5042012;28;20191;-68
2023/11/17 05:28:39;;;;;;;2.33;1.67;;;;;;;6.47;70.90;96199.63;5037007;28;20187;-69
2023/11/17 05:31:05;;;;;;;5.40;2.03;;;;;;;6.45;70.85;96210.09;5034697;28;20203;-68
2023/11/17 05:33:30;;;;;;;4.00;2.00;;;;;;;6.45;70.82;96217.94;5041627;28;21294;-68
2023/11/17 05:35:58;;;;;;;3.17;2.00;;;;;;;6.45;71.68;96217.94;5043202;28;20735;-68
2023/11/17 05:38:25;;;;;;;4.53;2.47;;;;;;;6.50;71.56;96216.03;5038101;28;20626;-68
2023/11/17 05:40:51;;;;;;;4.70;1.90;;;;;;;6.58;70.81;96214.03;5038874;28;20477;-68
2023/11/17 05:43:17;;;;;;;2.07;1.40;;;;;;;6.48;71.20;96215.22;5047458;28;20809;-69
2023/11/17 05:45:42;;;;;;;2.50;1.27;;;;;;;6.49;71.55;96218.66;5062118;28;20437;-68
2023/11/17 05:48:10;;;;;;;3.00;1.40;;;;;;;6.42;72.01;96223.22;5046182;28;20551;-68
2023/11/17 05:50:36;;;;;;;3.17;1.40;;;;;;;6.41;71.41;96228.50;5044778;28;20183;-69
2023/11/17 05:53:01;;;;;;;21.47;3.67;;;;;;;6.41;72.08;96228.50;5039432;28;20441;-67
2023/11/17 05:55:27;;;;;;;2.97;2.07;;;;;;;6.43;72.15;96222.31;5041562;28;20437;-69
2023/11/17 05:57:52;;;;;;;2.70;2.20;;;;;;;6.49;71.77;96224.72;5032616;28;20265;-67
2023/11/17 06:00:20;;;;;;;4.80;1.57;;;;;;;6.44;71.86;96225.78;5032034;28;20563;-67
2023/11/17 06:02:46;;;;;;;4.23;1.33;;;;;;;6.45;71.14;96225.75;5041390;28;20638;-69
2023/11/17 06:05:14;;;;;;;2.10;1.27;;;;;;;6.36;71.90;96226.03;5030677;28;20438;-68
2023/11/17 06:07:40;;;;;;;1.43;1.07;;;;;;;6.42;71.60;96223.22;5042420;28;20654;-67
2023/11/17 06:10:06;;;;;;;5.27;1.50;;;;;;;6.42;71.46;96225.81;5039041;28;20438;-68
2023/11/17 06:12:33;;;;;;;8.03;2.10;;;;;;;6.40;71.41;96232.81;5053328;28;20269;-70
2023/11/17 06:14:58;;;;;;;3.80;1.53;;;;;;;6.50;71.19;96236.03;5041555;28;20747;-69
2023/11/17 06:17:25;;;;;;;9.67;1.97;;;;;;;6.51;71.65;96241.19;5036657;28;20436;-69
2023/11/17 06:19:51;;;;;;;4.03;1.40;;;;;;;6.41;70.72;96242.38;5044300;28;20213;-69
2023/11/17 06:22:16;;;;;;;3.07;2.07;;;;;;;6.40;71.42;96240.66;5038992;28;20454;-69
2023/11/17 06:24:42;;;;;;;3.43;1.40;;;;;;;6.45;70.63;96246.59;5040660;28;20476;-69
2023/11/17 06:27:10;;;;;;;2.57;1.20;;;;;;;6.52;71.04;96249.84;5032322;28;20584;-68
2023/11/17 06:29:36;;;;;;;5.73;1.60;;;;;;;6.42;71.36;96257.09;5033048;28;20213;-69
2023/11/17 06:32:02;;;;;;;3.87;1.93;;;;;;;6.45;71.32;96257.03;5029171;28;20453;-69
2023/11/17 06:34:28;;;;;;;3.50;0.90;;;;;;;6.49;70.64;96253.41;5042202;28;20297;-70
2023/11/17 06:36:53;;;;;;;2.60;1.27;;;;;;;6.43;71.35;96258.81;5032612;28;20526;-70
2023/11/17 06:39:21;;;;;;;6.60;1.23;;;;;;;6.32;71.39;96264.34;5037259;28;20207;-68
2023/11/17 06:41:51;;;;;;;1.50;0.90;;;;;;;6.37;70.87;96261.59;5034468;28;20208;-69
2023/11/17 06:44:22;;;;;;;3.53;1.00;;;;;;;6.42;71.22;96267.53;5032057;28;20813;-69
2023/11/17 06:46:48;;;;;;;1.67;1.10;;;;;;;6.38;71.09;96265.06;5038428;28;20614;-68
2023/11/17 06:49:15;;;;;;;1.30;1.00;;;;;;;6.37;70.91;96266.81;5045358;28;20504;-69
2023/11/17 06:51:41;;;;;;;2.83;1.23;;;;;;;6.43;71.65;96265.78;5028088;28;20957;-68
2023/11/17 06:54:11;;;;;;;1.37;1.07;;;;;;;6.32;71.06;96266.09;5033634;28;20467;-69
2023/11/17 06:56:43;;;;;;;1.77;1.47;;;;;;;6.37;71.57;96274.63;5035715;28;20265;-68
2023/11/17 06:59:19;;;;;;;1.87;1.37;;;;;;;6.33;71.44;96273.00;5036943;28;20798;-67
2023/11/17 07:01:51;;;;;;;2.27;1.50;;;;;;;6.27;71.98;96279.25;5039597;28;20428;-69
2023/11/17 07:04:17;;;;;;;4.50;2.67;;;;;;;6.29;71.67;96276.63;5029139;28;20462;-69
2023/11/17 07:06:43;;;;;;;3.67;1.60;;;;;;;6.22;71.71;96280.31;5031098;28;20991;-69
2023/11/17 07:09:23;;;;;;;2.60;2.30;;;;;;;6.22;71.85;96282.91;5036745;28;20534;-67
2023/11/17 07:11:58;;;;;;;2.90;1.70;;;;;;;6.23;71.81;96289.81;5036540;28;20436;-69
2023/11/17 07:14:25;;;;;;;3.13;1.97;;;;;;;6.21;71.84;96286.41;5040584;28;20433;-69
2023/11/17 07:16:51;;;;;;;4.20;1.93;;;;;;;6.35;71.69;96294.66;5037357;28;21238;-69
2023/11/17 07:19:17;;;;;;;2.80;2.00;;;;;;;6.26;71.67;96300.13;5036973;28;20428;-69
2023/11/17 07:21:50;;;;;;;4.53;2.93;;;;;;;6.29;71.84;96310.50;5034918;28;20441;-69
2023/11/17 07:24:16;;;;;;;5.70;2.50;;;;;;;6.30;71.14;96299.16;5043938;28;20511;-68
2023/11/17 07:26:47;;;;;;;5.90;1.80;;;;;;;6.29;71.78;96311.34;5038703;28;20904;-68
2023/11/17 07:29:13;;;;;;;4.57;1.97;;;;;;;6.36;72.08;96318.09;5042678;28;20883;-68
2023/11/17 07:31:46;;;;;;;24.03;3.93;;;;;;;6.33;71.78;96319.91;5038195;28;20457;-69
2023/11/17 07:34:15;;;;;;;4.27;2.00;;;;;;;7.15;88.04;96331.38;5043745;28;20798;-68
2023/11/17 07:36:47;;;;;;;3.97;2.17;;;;;;;9.64;82.83;96310.13;5033679;28;20899;-67
2023/11/17 07:39:13;;;;;;;4.27;2.17;;;;;;;10.25;71.96;96309.28;5036940;28;20514;-68
2023/11/17 07:41:40;;;;;;;6.47;2.63;;;;;;;8.09;64.98;96331.75;5038812;28;20456;-70
2023/11/17 07:44:08;;;;;;;8.30;2.40;;;;;;;7.19;69.24;96333.00;5037121;28;20497;-68
2023/11/17 07:46:34;;;;;;;5.07;2.20;;;;;;;6.95;69.27;96343.31;5035271;28;20438;-68
2023/11/17 07:49:02;;;;;;;8.23;2.60;;;;;;;6.66;70.42;96338.97;5041342;28;20440;-69
2023/11/17 07:51:28;;;;;;;11.60;3.77;;;;;;;6.44;71.27;96348.28;5032916;28;20468;-70
2023/11/17 07:53:53;;;;;;;16.07;3.30;;;;;;;6.56;71.04;96343.56;5031859;28;20445;-69
2023/11/17 07:56:19;;;;;;;14.27;2.40;;;;;;;6.64;71.27;96350.31;5030132;28;20573;-70
2023/11/17 07:58:45;;;;;;;15.73;2.20;;;;;;;6.65;71.22;96354.66;5038312;28;20221;-67
2023/11/17 08:01:11;;;;;;;8.03;1.87;;;;;;;6.57;71.69;96355.72;5040126;28;20441;-69
2023/11/17 08:03:37;;;;;;;5.30;1.80;;;;;;;6.61;71.61;96355.63;5038605;28;20190;-69
2023/11/17 08:06:04;;;;;;;7.17;1.83;;;;;;;6.64;70.59;96361.63;5032036;28;20285;-69
2023/11/17 08:08:30;;;;;;;4.20;1.77;;;;;;;6.68;70.77;96363.22;5035577;28;20430;-70
2023/11/17 08:10:56;;;;;;;6.37;2.50;;;;;;;6.67;70.57;96371.09;5044505;28;20453;-69
2023/11/17 08:13:22;;;;;;;2.53;1.60;;;;;;;6.68;70.46;96370.19;5035406;28;20423;-70
2023/11/17 08:15:49;;;;;;;3.57;1.60;;;;;;;6.73;70.57;96373.50;5042653;28;20869;-66
2023/11/17 08:18:18;;;;;;;7.27;1.90;;;;;;;6.68;70.86;96376.25;5050462;28;20187;-68
2023/11/17 08:20:47;;;;;;;2.50;1.50;;;;;;;6.69;70.14;96377.97;5049331;28;20457;-68
2023/11/17 08:23:14;;;;;;;5.20;1.90;;;;;;;6.75;70.78;96379.53;5044851;28;20625;-68
2023/11/17 08:25:40;;;;;;;2.03;1.63;;;;;;;6.74;70.71;96380.47;5046817;28;20803;-68
2023/11/17 08:28:06;;;;;;;7.50;5.53;;;;;;;6.72;70.27;96379.66;5033942;28;20449;-68
2023/11/17 08:30:33;;;;;;;3.00;2.43;;;;;;;6.69;70.86;96379.75;5046223;28;20456;-69
2023/11/17 08:32:59;;;;;;;2.13;1.87;;;;;;;6.72;71.16;96384.88;5041413;28;20437;-69
2023/11/17 08:35:24;;;;;;;6.13;1.93;;;;;;;6.73;71.50;96391.78;5046626;28;20458;-70
2023/11/17 08:37:52;;;;;;;13.93;4.40;;;;;;;6.74;71.37;96396.09;5040200;28;20176;-68
2023/11/17 08:40:19;;;;;;;6.77;2.23;;;;;;;6.76;70.76;96396.94;5043904;28;20171;-67
2023/11/17 08:42:45;;;;;;;6.13;3.30;;;;;;;6.77;70.70;96401.22;5036282;28;20615;-68
2023/11/17 08:45:12;;;;;;;7.40;1.57;;;;;;;6.71;70.66;96407.47;5033883;28;20466;-68
2023/11/17 08:47:46;;;;;;;11.73;1.50;;;;;;;6.72;70.91;96400.50;5032055;28;20438;-67
2023/11/17 08:50:12;;;;;;;5.63;1.53;;;;;;;6.72;70.95;96405.72;5034926;28;20430;-69
2023/11/17 08:52:40;;;;;;;3.47;1.40;;;;;;;6.68;71.18;96411.91;5031923;28;20462;-69
2023/11/17 08:55:07;;;;;;;14.20;1.53;;;;;;;6.73;70.69;96410.91;5039857;28;20425;-71
2023/11/17 08:57:44;;;;;;;5.90;1.77;;;;;;;6.70;70.81;96410.97;5043389;28;20915;-66
2023/11/17 09:00:18;;;;;;;3.77;1.90;;;;;;;6.76;71.16;96420.41;5037097;28;20596;-72
2023/11/17 09:02:46;;;;;;;7.20;1.70;;;;;;;6.73;70.66;96413.50;5059776;28;20458;-69
2023/11/17 09:05:15;;;;;;;10.23;2.73;;;;;;;6.68;71.45;96419.75;5055228;28;20461;-70
2023/11/17 09:07:44;;;;;;;5.43;2.47;;;;;;;6.74;71.40;96427.41;5048765;28;20449;-70
2023/11/17 09:10:11;;;;;;;3.33;1.90;;;;;;;6.82;71.87;96425.41;5044656;28;20457;-67
2023/11/17 09:12:41;;;;;;;3.53;2.10;;;;;;;6.81;71.33;96421.13;5038293;28;20468;-71
2023/11/17 09:15:09;;;;;;;23.20;3.80;;;;;;;6.84;71.24;96433.22;5041564;28;20440;-68
2023/11/17 09:17:35;;;;;;;9.13;2.93;;;;;;;6.89;70.53;96429.56;5030830;28;20450;-70
2023/11/17 09:20:05;;;;;;;8.87;2.80;;;;;;;6.86;71.53;96431.41;5042588;28;20460;-70
2023/11/17 09:22:31;;;;;;;4.20;2.30;;;;;;;6.94;71.09;96438.09;5037871;28;20466;-68
2023/11/17 09:24:56;;;;;;;10.83;4.90;;;;;;;6.93;71.08;96433.78;5039057;28;20576;-68
2023/11/17 09:27:22;;;;;;;4.50;2.23;;;;;;;6.91;71.90;96438.19;5037301;28;20188;-68
2023/11/17 09:29:47;;;;;;;3.33;2.03;;;;;;;6.97;70.67;96435.44;5038671;28;20180;-68
2023/11/17 09:32:12;;;;;;;2.83;1.73;;;;;;;6.93;71.13;96431.19;5034844;28;20199;-69
2023/11/17 09:34:38;;;;;;;2.80;1.70;;;;;;;7.02;70.65;96437.91;5039463;28;20556;-70
2023/11/17 09:37:03;;;;;;;2.43;1.70;;;;;;;7.03;70.10;96434.38;5032027;28;20179;-71
2023/11/17 09:39:29;;;;;;;2.80;1.40;;;;;;;7.07;69.99;96438.63;5035119;28;20259;-69
2023/11/17 09:41:56;;;;;;;3.30;1.80;;;;;;;7.16;70.27;96433.13;5035857;28;20205;-69
2023/11/17 09:44:26;;;;;;;4.60;2.80;;;;;;;7.10;70.38;96442.88;5030393;28;20234;-69
2023/11/17 09:47:10;;;;;;;3.00;1.87;;;;;;;7.17;70.62;96439.19;5030859;28;20426;-69
2023/11/17 09:49:39;;;;;;;8.83;2.10;;;;;;;7.17;71.30;96445.25;5030811;28;20438;-71
2023/11/17 09:52:07;;;;;;;7.97;2.40;;;;;;;7.21;70.90;96440.81;5034671;28;20464;-69
2023/11/17 09:54:34;;;;;;;8.00;2.43;;;;;;;7.12;71.65;96447.16;5035116;28;20457;-69
2023/11/17 09:57:01;;;;;;;6.20;2.10;;;;;;;7.06;72.26;96441.25;5041420;28;20436;-66
2023/11/17 09:59:27;;;;;;;6.07;2.13;;;;;;;7.05;71.32;96445.63;5038760;28;20433;-67
2023/11/17 10:01:56;;;;;;;3.90;3.20;;;;;;;7.00;71.81;96444.91;5033532;28;20446;-66
2023/11/17 10:04:24;;;;;;;4.67;2.20;;;;;;;7.03;71.69;96449.19;5028121;28;20471;-67
2023/11/17 10:06:51;;;;;;;5.50;2.53;;;;;;;7.03;71.57;96447.44;5037483;28;20434;-68
2023/11/17 10:09:18;;;;;;;10.97;2.40;;;;;;;6.99;72.78;96448.41;5036170;28;20434;-66
2023/11/17 10:11:47;;;;;;;4.30;2.53;;;;;;;7.13;71.95;96451.47;5037356;28;21067;-66
2023/11/17 10:14:14;;;;;;;7.23;3.00;;;;;;;7.12;72.69;96447.16;5029908;28;20553;-68
2023/11/17 10:16:42;;;;;;;3.57;2.20;;;;;;;7.19;71.55;96442.63;5033076;28;20441;-66
2023/11/17 10:19:12;;;;;;;5.20;2.10;;;;;;;7.10;72.71;96445.50;5034866;28;20430;-67
2023/11/17 10:21:37;;;;;;;5.03;2.50;;;;;;;7.09;72.03;96449.03;5038993;28;20453;-68
2023/11/17 10:24:03;;;;;;;8.70;2.40;;;;;;;7.19;72.23;96447.84;5031731;28;21104;-68
2023/11/17 10:26:30;;;;;;;10.70;3.20;;;;;;;7.27;71.71;96448.44;5035831;28;20189;-69
2023/11/17 10:28:59;;;;;;;7.07;2.47;;;;;;;7.21;71.74;96449.50;5038126;28;20433;-68
2023/11/17 10:31:27;;;;;;;3.67;2.77;;;;;;;7.18;72.07;96447.00;5032398;28;20457;-68
2023/11/17 10:33:54;;;;;;;2.93;1.70;;;;;;;7.19;71.20;96455.66;5037744;28;20433;-67
2023/11/17 10:36:20;;;;;;;3.63;2.07;;;;;;;7.26;71.64;96453.72;5034114;28;20428;-69
2023/11/17 10:38:47;;;;;;;8.67;2.13;;;;;;;7.27;71.22;96455.44;5036339;28;20440;-68
2023/11/17 10:41:20;;;;;;;7.83;4.50;;;;;;;7.26;70.72;96449.38;5039710;28;20194;-68
2023/11/17 10:43:48;;;;;;;2.53;1.90;;;;;;;7.31;71.50;96460.50;5039791;28;20465;-67
2023/11/17 10:46:14;;;;;;;2.87;2.27;;;;;;;7.30;71.45;96455.31;5030371;28;20434;-68
2023/11/17 10:48:42;;;;;;;6.23;2.00;;;;;;;7.23;71.91;96457.28;5034711;28;20437;-69
2023/11/17 10:51:12;;;;;;;3.20;2.57;;;;;;;7.31;71.53;96455.28;5035373;28;20463;-66
2023/11/17 10:53:38;;;;;;;2.80;2.03;;;;;;;7.28;71.89;96447.56;5037827;28;20589;-68
2023/11/17 10:56:04;;;;;;;2.60;2.07;;;;;;;7.33;72.23;96453.50;5041156;28;20437;-68
2023/11/17 10:58:29;;;;;;;3.40;2.10;;;;;;;7.38;71.06;96451.59;5037438;28;20655;-69
2023/11/17 11:00:56;;;;;;;11.13;2.50;;;;;;;7.42;71.59;96448.00;5049252;28;20449;-69
2023/11/17 11:03:22;;;;;;;13.60;3.03;;;;;;;7.43;70.89;96444.47;5047894;28;20267;-68
2023/11/17 11:05:48;;;;;;;10.60;3.10;;;;;;;7.46;71.65;96440.06;5045748;28;20513;-69
2023/11/17 11:08:17;;;;;;;2.60;2.03;;;;;;;7.53;71.20;96445.03;5042984;28;20976;-69
2023/11/17 11:10:53;;;;;;;4.50;1.90;;;;;;;7.67;69.92;96442.00;5030896;28;20179;-68
2023/11/17 11:13:28;;;;;;;6.00;2.13;;;;;;;7.81;70.23;96445.03;5036275;28;20432;-67
2023/11/17 11:16:10;;;;;;;3.90;2.40;;;;;;;8.02;69.72;96451.31;5037837;28;20448;-67
2023/11/17 11:18:43;;;;;;;11.03;3.50;;;;;;;7.96;69.22;96446.31;5035091;28;20491;-70
2023/11/17 11:21:09;;;;;;;5.60;3.90;;;;;;;7.87;68.90;96444.00;5030415;28;20466;-68
2023/11/17 11:23:36;;;;;;;6.07;2.70;;;;;;;8.03;68.20;96433.88;5032045;28;20466;-70
2023/11/17 11:26:04;;;;;;;6.30;2.80;;;;;;;8.01;68.42;96438.31;5036293;28;20210;-68
2023/11/17 11:28:32;;;;;;;5.47;2.77;;;;;;;8.11;67.71;96439.69;5042701;28;20936;-69
2023/11/17 11:31:00;;;;;;;3.30;2.77;;;;;;;8.25;67.38;96441.84;5027046;28;20462;-68
2023/11/17 11:33:28;;;;;;;3.00;2.60;;;;;;;8.33;66.21;96439.81;5034076;28;20430;-68
2023/11/17 11:35:54;;;;;;;8.90;3.03;;;;;;;8.48;66.18;96443.72;5040850;28;20437;-68
2023/11/17 11:38:19;;;;;;;3.17;2.90;;;;;;;8.56;65.61;96436.44;5031071;28;20426;-67
2023/11/17 11:40:47;;;;;;;3.80;2.50;;;;;;;8.53;65.70;96438.31;5033364;28;20449;-69
2023/11/17 11:43:15;;;;;;;3.43;2.53;;;;;;;8.54;65.70;96442.63;5038356;28;20237;-68